Avery, Iowa
Current Conditions -  °F | °C
As of 2:53 AM on Friday 31 Oct 2014 (Local Time) from KOTM Reporting Station
Light Rain Light Rain  
Wind Chill:   Ceiling: 3800
Heat Index:   Visibility: 10mi
Dew Point: -1°   Wind: 29mph
Humidity: 62%   Direction: 350°N
Pressure: 30.25"   Gusts: 35mph
Location:  41.0299°N, 92.7795°W
Report Text: KOTM 310753Z AUTO 35025G30KT 10SM -RA OVC038 06/M01 A3025 RMK AO2 PK WND 35033/0737 SLP243 P0000 T00561011
Loading
Personal Weather Stations






























Interactive Weather Map
Tropical Storm Tracking
New forecast layout! Learn more

10-Day Weather Forecast

Advertisements
Track Severe Weather on mobile